createdAt,value
2024-01-17T00:01:37.984Z,97555.53
2024-01-17T00:04:06.382Z,97560.29
2024-01-17T00:06:35.114Z,97559.25
2024-01-17T00:09:05.453Z,97560.94
2024-01-17T00:11:34.435Z,97554.27
2024-01-17T00:14:02.709Z,97549.52
2024-01-17T00:16:31.062Z,97546.67
2024-01-17T00:18:59.458Z,97552.17
2024-01-17T00:21:28.778Z,97554.42
2024-01-17T00:23:57.034Z,97559.56
2024-01-17T00:26:25.428Z,97562.34
2024-01-17T00:28:53.779Z,97558.13
2024-01-17T00:31:21.976Z,97559.84
2024-01-17T00:33:50.254Z,97556.84
2024-01-17T00:36:18.640Z,97556.20
2024-01-17T00:38:47.130Z,97559.48
2024-01-17T00:41:15.749Z,97563.45
2024-01-17T00:43:43.989Z,97570.03
2024-01-17T00:46:12.576Z,97579.16
2024-01-17T00:48:40.869Z,97589.16
2024-01-17T00:51:10.150Z,97591.19
2024-01-17T00:53:38.827Z,97589.89
2024-01-17T00:56:07.095Z,97593.44
2024-01-17T00:58:35.418Z,97592.64
2024-01-17T01:01:03.786Z,97592.33
2024-01-17T01:03:32.669Z,97594.79
2024-01-17T01:06:01.319Z,97597.36
2024-01-17T01:08:29.820Z,97591.82
2024-01-17T01:10:57.993Z,97587.30
2024-01-17T01:13:26.299Z,97585.02
2024-01-17T01:15:54.567Z,97582.15
2024-01-17T01:18:23.048Z,97579.70
2024-01-17T01:20:51.860Z,97571.39
2024-01-17T01:23:20.169Z,97561.99
2024-01-17T01:25:48.357Z,97556.56
2024-01-17T01:28:17.782Z,97556.28
2024-01-17T01:30:46.300Z,97558.46
2024-01-17T01:33:14.740Z,97558.58
2024-01-17T01:35:43.005Z,97551.16
2024-01-17T01:38:11.400Z,97552.17
2024-01-17T01:40:39.807Z,97557.29
2024-01-17T01:43:24.558Z,97553.54
2024-01-17T01:46:18.766Z,97556.02
2024-01-17T01:48:48.106Z,97558.66
2024-01-17T01:51:17.287Z,97558.49
2024-01-17T01:53:50.503Z,97551.98
2024-01-17T01:56:23.702Z,97550.33
2024-01-17T01:58:54.853Z,97556.59
2024-01-17T02:01:26.619Z,97557.52
2024-01-17T02:03:56.912Z,97555.83
2024-01-17T02:06:30.301Z,97554.39
2024-01-17T02:08:59.087Z,97548.04
2024-01-17T02:11:30.822Z,97543.06
2024-01-17T02:14:00.290Z,97541.30
2024-01-17T02:16:29.431Z,97544.44
2024-01-17T02:18:59.963Z,97544.73
2024-01-17T02:21:28.643Z,97548.15
2024-01-17T02:24:15.595Z,97549.77
2024-01-17T02:26:44.558Z,97540.27
2024-01-17T02:29:12.927Z,97544.48
2024-01-17T02:31:41.875Z,97540.75
2024-01-17T02:34:10.741Z,97541.77
2024-01-17T02:36:39.541Z,97543.73
2024-01-17T02:39:07.926Z,97539.27
2024-01-17T02:41:36.393Z,97538.75
2024-01-17T02:44:04.825Z,97536.31
2024-01-17T02:46:33.094Z,97535.86
2024-01-17T02:49:01.769Z,97534.12
2024-01-17T02:51:30.564Z,97535.20
2024-01-17T02:53:58.887Z,97537.11
2024-01-17T02:56:27.363Z,97536.39
2024-01-17T02:58:55.581Z,97533.70
2024-01-17T03:01:24.124Z,97533.16
2024-01-17T03:03:54.759Z,97531.04
2024-01-17T03:06:23.030Z,97530.33
2024-01-17T03:08:51.573Z,97530.76
2024-01-17T03:11:19.829Z,97529.56
2024-01-17T03:13:49.410Z,97536.48
2024-01-17T03:16:20.543Z,97535.76
2024-01-17T03:18:48.973Z,97535.39
2024-01-17T03:21:18.038Z,97534.85
2024-01-17T03:23:46.435Z,97534.23
2024-01-17T03:26:14.904Z,97531.52
2024-01-17T03:28:45.229Z,97531.96
2024-01-17T03:31:13.645Z,97532.69
2024-01-17T03:33:42.355Z,97533.73
2024-01-17T03:36:10.928Z,97535.86
2024-01-17T03:38:40.648Z,97535.33
2024-01-17T03:41:09.644Z,97533.73
2024-01-17T03:43:37.909Z,97533.71
2024-01-17T03:46:06.333Z,97535.13
2024-01-17T03:48:35.387Z,97533.25
2024-01-17T03:51:04.017Z,97530.80
2024-01-17T03:53:32.453Z,97529.33
2024-01-17T03:56:01.547Z,97528.47
2024-01-17T03:58:32.063Z,97527.56
2024-01-17T04:01:03.077Z,97528.73
2024-01-17T04:03:31.302Z,97529.27
2024-01-17T04:05:59.565Z,97526.65
2024-01-17T04:08:27.985Z,97523.27
2024-01-17T04:10:56.525Z,97530.00
2024-01-17T04:13:25.018Z,97532.73
2024-01-17T04:15:53.835Z,97530.80
2024-01-17T04:18:22.420Z,97531.96
2024-01-17T04:20:51.006Z,97536.00
2024-01-17T04:23:19.749Z,97537.90
2024-01-17T04:25:48.039Z,97540.61
2024-01-17T04:28:18.504Z,97540.26
2024-01-17T04:30:47.029Z,97533.92
2024-01-17T04:33:15.769Z,97530.13
2024-01-17T04:35:44.550Z,97525.18
2024-01-17T04:38:12.915Z,97524.10
2024-01-17T04:40:41.127Z,97524.64
2024-01-17T04:43:09.394Z,97528.66
2024-01-17T04:45:37.797Z,97529.41
2024-01-17T04:48:09.493Z,97527.02
2024-01-17T04:50:38.015Z,97528.80
2024-01-17T04:53:06.334Z,97520.60
2024-01-17T04:55:34.851Z,97509.98
2024-01-17T04:58:03.174Z,97508.48
2024-01-17T05:00:32.129Z,97507.60
2024-01-17T05:03:00.502Z,97509.45
2024-01-17T05:05:29.148Z,97516.34
2024-01-17T05:07:57.497Z,97518.92
2024-01-17T05:10:26.340Z,97516.34
2024-01-17T05:12:54.566Z,97511.39
2024-01-17T05:15:23.017Z,97510.00
2024-01-17T05:17:51.485Z,97513.20
2024-01-17T05:20:19.882Z,97514.92
2024-01-17T05:22:48.187Z,97503.44
2024-01-17T05:25:16.621Z,97503.27
2024-01-17T05:27:51.459Z,97507.55
2024-01-17T05:30:21.333Z,97513.84
2024-01-17T05:32:49.698Z,97514.29
2024-01-17T05:35:18.604Z,97520.81
2024-01-17T05:37:47.113Z,97525.98
2024-01-17T05:40:15.524Z,97525.63
2024-01-17T05:42:46.047Z,97527.92
2024-01-17T05:45:14.784Z,97526.15
2024-01-17T05:47:43.576Z,97526.41
2024-01-17T05:50:13.603Z,97526.26
2024-01-17T05:52:43.814Z,97523.40
2024-01-17T05:55:13.843Z,97523.08
2024-01-17T05:57:42.637Z,97526.95
2024-01-17T06:00:13.820Z,97519.10
2024-01-17T06:02:44.422Z,97515.16
2024-01-17T06:05:17.519Z,97514.84
2024-01-17T06:07:45.934Z,97503.77
2024-01-17T06:10:15.052Z,97502.45
2024-01-17T06:12:44.299Z,97498.95
2024-01-17T06:15:19.185Z,97500.75
2024-01-17T06:17:47.717Z,97501.16
2024-01-17T06:20:17.050Z,97493.89
2024-01-17T06:22:45.307Z,97490.27
2024-01-17T06:25:14.026Z,97488.80
2024-01-17T06:27:42.346Z,97482.52
2024-01-17T06:30:11.458Z,97482.77
2024-01-17T06:32:39.973Z,97494.52
2024-01-17T06:35:11.655Z,97503.08
2024-01-17T06:37:40.196Z,97498.05
2024-01-17T06:40:09.772Z,97496.02
2024-01-17T06:42:38.801Z,97492.66
2024-01-17T06:45:07.970Z,97492.73
2024-01-17T06:47:36.365Z,97487.80
2024-01-17T06:50:04.983Z,97478.15
2024-01-17T06:52:34.653Z,97480.95
2024-01-17T06:55:03.148Z,97468.49
2024-01-17T06:57:31.465Z,97460.72
2024-01-17T06:59:59.917Z,97459.35
2024-01-17T07:02:28.559Z,97464.15
2024-01-17T07:04:56.773Z,97475.17
2024-01-17T07:07:25.040Z,97474.00
2024-01-17T07:09:53.402Z,97463.63
2024-01-17T07:12:22.829Z,97471.16
2024-01-17T07:14:55.585Z,97463.73
2024-01-17T07:17:23.822Z,97461.84
2024-01-17T07:19:52.352Z,97471.75
2024-01-17T07:22:20.584Z,97465.64
2024-01-17T07:24:48.966Z,97464.05
2024-01-17T07:27:17.408Z,97467.23
2024-01-17T07:29:45.742Z,97461.91
2024-01-17T07:32:15.717Z,97460.56
2024-01-17T07:34:44.277Z,97458.41
2024-01-17T07:37:15.521Z,97451.33
2024-01-17T07:39:44.663Z,97447.00
2024-01-17T07:42:13.068Z,97445.05
2024-01-17T07:44:41.649Z,97447.50
2024-01-17T07:47:09.949Z,97433.11
2024-01-17T07:49:41.347Z,97424.26
2024-01-17T07:52:10.033Z,97425.13
2024-01-17T07:54:38.465Z,97414.61
2024-01-17T07:57:07.085Z,97407.16
2024-01-17T07:59:35.332Z,97414.08
2024-01-17T08:02:04.372Z,97400.69
2024-01-17T08:04:32.859Z,97400.91
2024-01-17T08:07:01.190Z,97403.41
2024-01-17T08:09:29.907Z,97402.57
2024-01-17T08:11:59.900Z,97400.07
2024-01-17T08:14:28.556Z,97404.91
2024-01-17T08:16:57.256Z,97396.33
2024-01-17T08:19:26.550Z,97395.70
2024-01-17T08:21:55.142Z,97397.25
2024-01-17T08:24:23.652Z,97396.20
2024-01-17T08:26:51.834Z,97394.60
2024-01-17T08:29:20.328Z,97394.24
2024-01-17T08:31:48.497Z,97389.81
2024-01-17T08:34:16.915Z,97387.52
2024-01-17T08:36:45.469Z,97386.23
2024-01-17T08:39:13.799Z,97377.83
2024-01-17T08:41:47.225Z,97375.95
2024-01-17T08:44:16.425Z,97378.08
2024-01-17T08:46:48.118Z,97380.55
2024-01-17T08:49:16.495Z,97376.32
2024-01-17T08:51:44.717Z,97369.20
2024-01-17T08:54:13.150Z,97362.99
2024-01-17T08:56:41.706Z,97353.99
2024-01-17T08:59:10.575Z,97353.70
2024-01-17T09:01:39.158Z,97343.97
2024-01-17T09:04:07.553Z,97339.48
2024-01-17T09:06:36.676Z,97339.33
2024-01-17T09:09:05.598Z,97344.23
2024-01-17T09:11:34.096Z,97346.30
2024-01-17T09:14:03.000Z,97322.38
2024-01-17T09:16:32.302Z,97319.96
2024-01-17T09:19:01.407Z,97317.11
2024-01-17T09:21:30.761Z,97311.66
2024-01-17T09:23:59.193Z,97313.68
2024-01-17T09:26:27.572Z,97312.83
2024-01-17T09:28:55.932Z,97306.98
2024-01-17T09:31:24.141Z,97293.61
2024-01-17T09:33:52.497Z,97287.00
2024-01-17T09:36:21.952Z,97276.57
2024-01-17T09:38:50.597Z,97256.10
2024-01-17T09:41:18.898Z,97245.61
2024-01-17T09:43:48.050Z,97236.27
2024-01-17T09:46:16.468Z,97236.50
2024-01-17T09:48:44.986Z,97234.80
2024-01-17T09:51:19.619Z,97233.07
2024-01-17T09:53:52.117Z,97228.63
2024-01-17T09:56:23.261Z,97226.11
2024-01-17T09:58:53.953Z,97230.64
2024-01-17T10:01:23.564Z,97223.65
2024-01-17T10:03:55.635Z,97218.75
2024-01-17T10:06:26.257Z,97222.86
2024-01-17T10:08:55.501Z,97218.95
2024-01-17T10:11:26.078Z,97213.30
2024-01-17T10:13:54.603Z,97207.32
2024-01-17T10:16:24.471Z,97201.08
2024-01-17T10:18:53.040Z,97199.81
2024-01-17T10:21:23.463Z,97197.84
2024-01-17T10:23:52.045Z,97190.17
2024-01-17T10:26:22.627Z,97192.68
2024-01-17T10:28:53.187Z,97187.79
2024-01-17T10:31:24.625Z,97190.49
2024-01-17T10:33:54.508Z,97173.04
2024-01-17T10:36:23.143Z,97164.73
2024-01-17T10:38:51.991Z,97162.59
2024-01-17T10:41:20.566Z,97164.62
2024-01-17T10:43:56.946Z,97158.39
2024-01-17T10:46:26.743Z,97139.61
2024-01-17T10:48:55.596Z,97132.67
2024-01-17T10:51:25.273Z,97135.81
2024-01-17T10:53:56.711Z,97129.58
2024-01-17T10:56:28.155Z,97129.02
2024-01-17T10:58:58.021Z,97117.88
2024-01-17T11:01:35.653Z,97115.41
2024-01-17T11:04:12.164Z,97112.77
2024-01-17T11:06:40.759Z,97108.15
2024-01-17T11:09:11.866Z,97104.77
2024-01-17T11:11:43.245Z,97112.27
2024-01-17T11:14:13.689Z,97108.23
2024-01-17T11:16:47.500Z,97100.94
2024-01-17T11:19:20.630Z,97096.91
2024-01-17T11:21:49.620Z,97102.06
2024-01-17T11:25:14.184Z,97102.27
2024-01-17T11:27:47.058Z,97106.92
2024-01-17T11:30:33.744Z,97106.83
2024-01-17T11:33:08.289Z,97100.09
2024-01-17T11:35:44.136Z,97097.58
2024-01-17T11:38:15.690Z,97091.36
2024-01-17T11:40:44.282Z,97093.91
2024-01-17T11:43:15.800Z,97096.79
2024-01-17T11:45:44.309Z,97080.46
2024-01-17T11:48:33.861Z,97076.79
2024-01-17T11:51:15.570Z,97077.02
2024-01-17T11:53:47.748Z,97071.48
2024-01-17T11:56:17.841Z,97066.70
2024-01-17T11:58:52.736Z,97058.69
2024-01-17T12:01:27.979Z,97056.27
2024-01-17T12:03:56.246Z,97043.64
2024-01-17T12:06:24.848Z,97047.00
2024-01-17T12:08:54.735Z,97049.70
2024-01-17T12:11:24.178Z,97060.10
2024-01-17T12:13:54.326Z,97051.66
2024-01-17T12:16:24.776Z,97047.85
2024-01-17T12:19:01.924Z,97049.42
2024-01-17T12:21:31.792Z,97033.28
2024-01-17T12:24:00.830Z,97036.64
2024-01-17T12:26:31.991Z,97025.69
2024-01-17T12:29:11.462Z,97004.38
2024-01-17T12:31:40.454Z,96998.31
2024-01-17T12:34:10.857Z,97000.73
2024-01-17T12:36:40.482Z,97008.69
2024-01-17T12:39:14.310Z,96998.59
2024-01-17T12:41:44.230Z,96994.48
2024-01-17T12:44:13.270Z,96997.61
2024-01-17T12:46:42.362Z,96990.81
2024-01-17T12:49:16.215Z,96987.59
2024-01-17T12:51:47.761Z,96985.93
2024-01-17T12:54:21.253Z,96978.41
2024-01-17T12:56:52.467Z,96977.93
2024-01-17T12:59:22.099Z,96967.63
2024-01-17T13:01:53.612Z,96967.22
2024-01-17T13:04:25.261Z,96976.31
2024-01-17T13:06:59.433Z,96971.97
2024-01-17T13:09:34.580Z,96976.40
2024-01-17T13:12:07.492Z,96970.85
2024-01-17T13:14:36.084Z,96963.44
2024-01-17T13:17:13.738Z,96956.45
2024-01-17T13:19:48.094Z,96955.02
2024-01-17T13:22:19.969Z,96956.61
2024-01-17T13:24:58.172Z,96953.93
2024-01-17T13:27:30.295Z,96958.55
2024-01-17T13:30:00.698Z,96961.81
2024-01-17T13:32:29.934Z,96963.99
2024-01-17T13:34:59.030Z,96967.18
2024-01-17T13:37:30.300Z,96957.27
2024-01-17T13:39:59.258Z,96963.77
2024-01-17T13:42:31.040Z,96965.88
2024-01-17T13:45:00.675Z,96954.89
2024-01-17T13:47:30.840Z,96958.57
2024-01-17T13:50:08.099Z,96949.75
2024-01-17T13:52:38.699Z,96942.38
2024-01-17T13:55:07.264Z,96939.54
2024-01-17T13:57:45.045Z,96941.41
2024-01-17T14:00:14.284Z,96931.70
2024-01-17T14:02:45.467Z,96932.49
2024-01-17T14:05:14.581Z,96936.21
2024-01-17T14:07:43.680Z,96934.70
2024-01-17T14:10:14.093Z,96938.74
2024-01-17T14:12:45.644Z,96933.52
2024-01-17T14:15:14.847Z,96931.73
2024-01-17T14:17:43.736Z,96930.55
2024-01-17T14:20:20.180Z,96919.58
2024-01-17T14:22:52.824Z,96928.46
2024-01-17T14:25:21.667Z,96925.71
2024-01-17T14:27:50.452Z,96913.33
2024-01-17T14:30:24.132Z,96912.14
2024-01-17T14:32:56.178Z,96903.89
2024-01-17T14:35:41.012Z,96893.96
2024-01-17T14:38:22.895Z,96888.91
2024-01-17T14:40:53.404Z,96883.13
2024-01-17T14:43:22.751Z,96885.52
2024-01-17T14:45:51.365Z,96886.23
2024-01-17T14:48:20.152Z,96882.52
2024-01-17T14:50:49.133Z,96873.20
2024-01-17T14:53:18.318Z,96872.27
2024-01-17T14:55:46.948Z,96876.11
2024-01-17T14:58:15.452Z,96879.88
2024-01-17T15:00:44.314Z,96891.72
2024-01-17T15:03:16.463Z,96899.66
2024-01-17T15:05:45.823Z,96898.16
2024-01-17T15:08:15.603Z,96898.50
2024-01-17T15:10:44.349Z,96893.32
2024-01-17T15:13:13.092Z,96899.11
2024-01-17T15:15:41.359Z,96891.94
2024-01-17T15:18:10.807Z,96867.09
2024-01-17T15:20:39.786Z,96852.57
2024-01-17T15:23:09.965Z,96864.82
2024-01-17T15:25:38.257Z,96865.95
2024-01-17T15:28:06.882Z,96861.30
2024-01-17T15:30:35.362Z,96863.63
2024-01-17T15:33:05.379Z,96860.48
2024-01-17T15:35:33.976Z,96857.09
2024-01-17T15:38:02.845Z,96858.13
2024-01-17T15:40:31.492Z,96858.23
2024-01-17T15:42:59.875Z,96857.23
2024-01-17T15:45:28.920Z,96858.25
2024-01-17T15:47:57.468Z,96854.63
2024-01-17T15:50:26.117Z,96843.86
2024-01-17T15:52:54.540Z,96836.86
2024-01-17T15:55:23.015Z,96834.36
2024-01-17T15:57:51.825Z,96832.61
2024-01-17T16:00:20.613Z,96822.46
2024-01-17T16:02:49.092Z,96807.10
2024-01-17T16:05:18.008Z,96801.48
2024-01-17T16:07:46.830Z,96785.89
2024-01-17T16:10:15.620Z,96786.05
2024-01-17T16:12:45.402Z,96800.13
2024-01-17T16:15:14.247Z,96803.03
2024-01-17T16:17:43.441Z,96798.48
2024-01-17T16:20:14.218Z,96787.57
2024-01-17T16:22:47.238Z,96782.88
2024-01-17T16:25:16.308Z,96789.91
2024-01-17T16:27:45.129Z,96792.48
2024-01-17T16:30:14.441Z,96792.84
2024-01-17T16:32:45.566Z,96787.58
2024-01-17T16:35:15.154Z,96787.66
2024-01-17T16:37:52.816Z,96787.08
2024-01-17T16:40:21.890Z,96784.86
2024-01-17T16:42:52.073Z,96780.45
2024-01-17T16:45:23.843Z,96783.42
2024-01-17T16:47:54.603Z,96788.45
2024-01-17T16:50:23.825Z,96790.28
2024-01-17T16:52:53.175Z,96785.91
2024-01-17T16:55:21.859Z,96781.77
2024-01-17T16:57:50.193Z,96774.69
2024-01-17T17:00:19.350Z,96776.80
2024-01-17T17:02:47.946Z,96783.09
2024-01-17T17:05:16.579Z,96783.89
2024-01-17T17:07:46.808Z,96778.25
2024-01-17T17:10:15.835Z,96777.78
2024-01-17T17:12:45.140Z,96778.25
2024-01-17T17:15:13.739Z,96777.29
2024-01-17T17:17:43.441Z,96773.23
2024-01-17T17:20:12.622Z,96766.17
2024-01-17T17:22:44.185Z,96768.39
2024-01-17T17:25:12.780Z,96773.59
2024-01-17T17:27:47.140Z,96773.66
2024-01-17T17:30:16.894Z,96764.73
2024-01-17T17:32:45.769Z,96763.83
2024-01-17T17:35:14.944Z,96761.00
2024-01-17T17:37:44.158Z,96758.63
2024-01-17T17:40:15.351Z,96754.95
2024-01-17T17:42:44.065Z,96745.60
2024-01-17T17:45:13.738Z,96742.73
2024-01-17T17:47:44.121Z,96745.52
2024-01-17T17:50:15.271Z,96747.23
2024-01-17T17:52:45.218Z,96748.30
2024-01-17T17:55:15.529Z,96744.30
2024-01-17T17:57:43.921Z,96743.48
2024-01-17T18:00:13.954Z,96740.55
2024-01-17T18:02:42.962Z,96736.34
2024-01-17T18:05:11.863Z,96734.21
2024-01-17T18:07:40.608Z,96729.28
2024-01-17T18:10:09.998Z,96726.61
2024-01-17T18:12:38.821Z,96728.83
2024-01-17T18:15:09.576Z,96723.03
2024-01-17T18:17:38.272Z,96718.16
2024-01-17T18:20:07.304Z,96708.38
2024-01-17T18:22:36.290Z,96704.69
2024-01-17T18:25:09.038Z,96703.90
2024-01-17T18:27:38.102Z,96698.66
2024-01-17T18:30:08.125Z,96692.67
2024-01-17T18:32:37.659Z,96696.19
2024-01-17T18:35:11.768Z,96698.84
2024-01-17T18:37:40.402Z,96703.51
2024-01-17T18:40:10.972Z,96700.18
2024-01-17T18:42:39.435Z,96701.52
2024-01-17T18:45:08.215Z,96707.98
2024-01-17T18:47:37.549Z,96708.95
2024-01-17T18:50:07.426Z,96704.59
2024-01-17T18:52:39.175Z,96707.17
2024-01-17T18:55:08.926Z,96698.67
2024-01-17T18:57:37.454Z,96696.80
2024-01-17T19:00:09.008Z,96699.11
2024-01-17T19:02:38.862Z,96696.51
2024-01-17T19:05:07.680Z,96694.75
2024-01-17T19:07:37.353Z,96690.05
2024-01-17T19:10:06.593Z,96687.03
2024-01-17T19:12:37.550Z,96685.67
2024-01-17T19:15:06.577Z,96690.33
2024-01-17T19:17:35.104Z,96689.52
2024-01-17T19:20:05.841Z,96693.27
2024-01-17T19:22:36.964Z,96690.19
2024-01-17T19:25:08.980Z,96690.23
2024-01-17T19:27:39.054Z,96691.19
2024-01-17T19:30:08.061Z,96688.33
2024-01-17T19:32:37.571Z,96680.06
2024-01-17T19:35:07.326Z,96677.70
2024-01-17T19:37:35.867Z,96679.95
2024-01-17T19:40:04.625Z,96678.13
2024-01-17T19:42:33.038Z,96681.95
2024-01-17T19:45:01.586Z,96676.26
2024-01-17T19:47:30.274Z,96671.15
2024-01-17T19:49:59.775Z,96671.33
2024-01-17T19:52:29.238Z,96672.16
2024-01-17T19:54:57.713Z,96663.49
2024-01-17T19:57:26.169Z,96668.05
2024-01-17T19:59:54.606Z,96678.65
2024-01-17T20:02:23.102Z,96678.44
2024-01-17T20:04:51.468Z,96672.97
2024-01-17T20:07:19.621Z,96661.81
2024-01-17T20:09:47.904Z,96667.56
2024-01-17T20:12:22.148Z,96660.15
2024-01-17T20:14:51.789Z,96664.70
2024-01-17T20:17:20.450Z,96665.21
2024-01-17T20:19:49.972Z,96667.02
2024-01-17T20:22:18.368Z,96664.98
2024-01-17T20:24:48.692Z,96665.26
2024-01-17T20:27:22.919Z,96665.05
2024-01-17T20:29:51.548Z,96669.63
2024-01-17T20:32:20.024Z,96672.98
2024-01-17T20:34:48.663Z,96669.25
2024-01-17T20:37:17.297Z,96668.48
2024-01-17T20:39:47.483Z,96662.64
2024-01-17T20:42:19.963Z,96660.14
2024-01-17T20:44:49.555Z,96657.70
2024-01-17T20:47:17.816Z,96661.56
2024-01-17T20:49:47.062Z,96665.55
2024-01-17T20:52:21.393Z,96659.98
2024-01-17T20:54:57.974Z,96653.77
2024-01-17T20:57:26.418Z,96645.67
2024-01-17T20:59:54.892Z,96642.30
2024-01-17T21:02:23.183Z,96642.14
2024-01-17T21:04:51.543Z,96633.64
2024-01-17T21:07:20.384Z,96633.02
2024-01-17T21:09:52.593Z,96626.59
2024-01-17T21:12:20.925Z,96621.45
2024-01-17T21:14:49.669Z,96619.34
2024-01-17T21:17:17.993Z,96619.42
2024-01-17T21:19:46.607Z,96616.80
2024-01-17T21:22:15.968Z,96611.70
2024-01-17T21:24:46.213Z,96609.52
2024-01-17T21:27:14.479Z,96606.59
2024-01-17T21:29:42.727Z,96603.77
2024-01-17T21:32:10.976Z,96598.83
2024-01-17T21:34:41.665Z,96595.85
2024-01-17T21:37:13.237Z,96594.05
2024-01-17T21:39:43.883Z,96593.19
2024-01-17T21:42:12.279Z,96587.55
2024-01-17T21:44:43.652Z,96580.23
2024-01-17T21:47:14.062Z,96577.96
2024-01-17T21:49:42.713Z,96570.32
2024-01-17T21:52:11.085Z,96562.90
2024-01-17T21:54:39.323Z,96560.04
2024-01-17T21:57:07.778Z,96555.58
2024-01-17T21:59:41.990Z,96544.90
2024-01-17T22:02:11.684Z,96545.89
2024-01-17T22:04:40.032Z,96541.90
2024-01-17T22:07:08.834Z,96538.38
2024-01-17T22:09:37.531Z,96528.20
2024-01-17T22:12:08.081Z,96521.08
2024-01-17T22:14:36.503Z,96509.77
2024-01-17T22:17:05.390Z,96505.86
2024-01-17T22:19:35.078Z,96498.67
2024-01-17T22:22:04.414Z,96494.42
2024-01-17T22:24:34.039Z,96482.15
2024-01-17T22:27:02.787Z,96475.27
2024-01-17T22:29:31.555Z,96471.95
2024-01-17T22:31:59.892Z,96467.88
2024-01-17T22:34:28.331Z,96467.36
2024-01-17T22:36:57.308Z,96468.86
2024-01-17T22:39:25.809Z,96460.67
2024-01-17T22:42:12.804Z,96458.31
2024-01-17T22:44:47.060Z,96455.11
2024-01-17T22:47:15.253Z,96452.72
2024-01-17T22:49:43.477Z,96447.23
2024-01-17T22:52:13.486Z,96440.09
2024-01-17T22:54:42.264Z,96442.27
2024-01-17T22:57:11.152Z,96436.80
2024-01-17T22:59:39.935Z,96432.86
2024-01-17T23:02:08.249Z,96429.14
2024-01-17T23:04:37.477Z,96422.48
2024-01-17T23:07:05.867Z,96421.41
2024-01-17T23:09:34.226Z,96420.64
2024-01-17T23:12:02.701Z,96425.02
2024-01-17T23:14:31.150Z,96421.73
2024-01-17T23:16:59.422Z,96416.61
2024-01-17T23:19:27.869Z,96406.80
2024-01-17T23:21:56.111Z,96408.48
2024-01-17T23:24:25.501Z,96406.15
2024-01-17T23:26:53.793Z,96405.93
2024-01-17T23:29:21.948Z,96398.77
2024-01-17T23:31:50.244Z,96397.73
2024-01-17T23:34:18.824Z,96390.55
2024-01-17T23:36:47.219Z,96389.12
2024-01-17T23:39:15.495Z,96380.43
2024-01-17T23:41:43.789Z,96370.98
2024-01-17T23:44:12.073Z,96366.44
2024-01-17T23:46:40.252Z,96364.70
2024-01-17T23:49:09.761Z,96367.52
2024-01-17T23:51:38.122Z,96364.26
2024-01-17T23:54:06.469Z,96357.44
2024-01-17T23:56:39.091Z,96357.36
2024-01-17T23:59:08.381Z,96344.80
